Time;durP1;ratioP1;P1;durP2;ratioP2;P2;SDS_P1;SDS_P2;PMS_P1;PMS_P2;Temp;Humidity;BMP_temperature;BMP_pressure;BME280_temperature;BME280_humidity;BME280_pressure;Samples;Min_cycle;Max_cycle;Signal;HPM_P1;HPM_P2
2022/12/27 00:01:53;;;;;;;15.10;2.90;;;3.60;99.90;;;;;;4979794;28;20027;-92
2022/12/27 00:04:19;;;;;;;9.23;2.30;;;3.70;99.90;;;;;;4979618;28;20038;-93
2022/12/27 00:06:44;;;;;;;10.95;2.70;;;3.60;99.90;;;;;;4979751;28;20090;-92
2022/12/27 00:09:10;;;;;;;7.63;2.42;;;3.60;99.90;;;;;;4980461;28;20019;-93
2022/12/27 00:11:37;;;;;;;7.88;2.03;;;3.60;99.90;;;;;;4981583;28;20031;-94
2022/12/27 00:14:05;;;;;;;7.22;1.88;;;3.60;99.90;;;;;;4979044;28;20512;-92
2022/12/27 00:16:31;;;;;;;7.35;1.92;;;3.60;99.90;;;;;;4984696;28;20050;-93
2022/12/27 00:18:57;;;;;;;9.55;1.85;;;3.60;99.90;;;;;;5006413;28;20053;-94
2022/12/27 00:21:23;;;;;;;3.72;1.27;;;3.50;99.90;;;;;;4970860;28;20047;-93
2022/12/27 00:23:53;;;;;;;9.50;1.65;;;3.50;99.90;;;;;;4976643;28;20038;-94
2022/12/27 00:26:25;;;;;;;9.00;1.52;;;3.50;99.90;;;;;;4996950;28;20033;-96
2022/12/27 00:28:51;;;;;;;13.65;1.92;;;3.50;99.90;;;;;;4998380;28;20030;-95
2022/12/27 00:31:20;;;;;;;4.40;1.60;;;3.50;99.90;;;;;;4997752;28;20052;-94
2022/12/27 00:33:50;;;;;;;6.55;2.10;;;3.50;99.90;;;;;;4999330;28;20122;-94
2022/12/27 00:36:21;;;;;;;7.40;2.60;;;3.60;99.90;;;;;;4999854;28;20097;-95
2022/12/27 00:38:47;;;;;;;7.25;2.10;;;3.50;99.90;;;;;;5001625;28;20038;-93
2022/12/27 00:41:14;;;;;;;10.82;2.50;;;3.60;99.90;;;;;;5000660;28;20069;-94
2022/12/27 00:43:40;;;;;;;14.23;4.53;;;3.60;99.90;;;;;;5018798;28;20158;-95
2022/12/27 00:46:06;;;;;;;4.13;1.70;;;3.50;99.90;;;;;;5018019;28;20022;-92
2022/12/27 00:48:33;;;;;;;9.02;3.10;;;3.60;99.90;;;;;;4997873;28;20054;-95
2022/12/27 00:51:01;;;;;;;4.38;1.83;;;3.60;99.90;;;;;;5013934;28;20026;-96
2022/12/27 00:53:28;;;;;;;10.90;2.40;;;3.60;99.90;;;;;;4993549;28;20034;-94
2022/12/27 00:55:54;;;;;;;7.43;2.30;;;3.60;99.90;;;;;;5012864;28;20045;-94
2022/12/27 00:58:20;;;;;;;7.15;2.30;;;3.60;99.90;;;;;;4992963;28;20031;-94
2022/12/27 01:00:46;;;;;;;14.63;1.70;;;3.60;99.90;;;;;;4998276;28;20037;-94
2022/12/27 01:03:12;;;;;;;10.07;1.70;;;3.60;99.90;;;;;;5010738;28;20031;-94
2022/12/27 01:05:38;;;;;;;7.15;1.80;;;3.60;99.90;;;;;;4994644;28;20023;-92
2022/12/27 01:08:04;;;;;;;8.10;1.83;;;3.60;99.90;;;;;;5013755;28;20041;-94
2022/12/27 01:10:30;;;;;;;5.30;1.50;;;3.60;99.90;;;;;;4993987;28;20023;-95
2022/12/27 01:12:56;;;;;;;14.75;1.67;;;3.60;99.90;;;;;;4994369;28;20026;-95
2022/12/27 01:15:22;;;;;;;5.18;1.60;;;3.60;99.90;;;;;;4993695;28;20038;-92
2022/12/27 01:17:47;;;;;;;5.30;1.30;;;3.60;99.90;;;;;;4991459;28;20035;-95
2022/12/27 01:20:13;;;;;;;4.57;1.40;;;3.60;99.90;;;;;;4990909;28;20035;-94
2022/12/27 01:22:39;;;;;;;5.55;1.00;;;3.60;99.90;;;;;;5012898;28;20090;-95
2022/12/27 01:25:05;;;;;;;6.72;1.50;;;3.60;99.90;;;;;;4984654;28;20046;-92
2022/12/27 01:27:31;;;;;;;6.85;1.25;;;3.60;99.90;;;;;;4988532;28;20046;-95
2022/12/27 01:29:56;;;;;;;5.88;1.60;;;3.60;99.90;;;;;;5008489;28;20030;-93
2022/12/27 01:32:22;;;;;;;9.63;1.40;;;3.50;99.90;;;;;;4988788;28;20061;-93
2022/12/27 01:34:49;;;;;;;10.52;1.60;;;3.50;99.90;;;;;;5004912;28;20046;-94
2022/12/27 01:37:15;;;;;;;8.38;1.30;;;3.60;99.90;;;;;;4987748;28;20027;-92
2022/12/27 01:39:40;;;;;;;4.78;1.40;;;3.50;99.90;;;;;;5001938;28;20057;-93
2022/12/27 01:45:09;;;;;;;7.03;1.48;;;3.50;99.90;;;;;;5006333;28;20041;-92
2022/12/27 01:47:41;;;;;;;3.80;1.02;;;3.50;99.90;;;;;;4984171;28;20034;-92
2022/12/27 01:50:23;;;;;;;6.72;1.50;;;3.40;99.90;;;;;;4981834;28;20122;-93
2022/12/27 01:53:09;;;;;;;3.42;1.20;;;3.40;99.90;;;;;;4977252;28;20018;-92
2022/12/27 01:55:49;;;;;;;5.65;1.15;;;3.40;99.90;;;;;;4984773;28;20491;-91
2022/12/27 01:58:42;;;;;;;8.60;1.60;;;3.40;99.90;;;;;;4981353;28;20058;-91
2022/12/27 02:01:19;;;;;;;13.30;3.35;;;3.40;99.90;;;;;;4984707;28;20064;-92
2022/12/27 02:03:55;;;;;;;8.52;1.50;;;3.40;99.90;;;;;;4984842;28;20030;-92
2022/12/27 02:06:22;;;;;;;6.88;1.50;;;3.40;99.90;;;;;;4984842;28;20053;-93
2022/12/27 02:09:01;;;;;;;1.80;1.00;;;3.40;99.90;;;;;;4981189;28;20481;-92
2022/12/27 02:11:50;;;;;;;10.00;1.80;;;3.30;99.90;;;;;;4982009;28;20027;-92
2022/12/27 02:14:32;;;;;;;9.43;3.15;;;3.30;99.90;;;;;;4984196;28;20035;-91
2022/12/27 02:17:02;;;;;;;14.55;2.47;;;3.30;99.90;;;;;;4980851;28;20472;-93
2022/12/27 02:19:33;;;;;;;8.70;1.40;;;3.30;99.90;;;;;;4981813;28;20166;-92
2022/12/27 02:22:27;;;;;;;6.05;1.63;;;3.30;99.90;;;;;;4983589;28;20011;-94
2022/12/27 02:25:01;;;;;;;3.88;1.08;;;3.30;99.90;;;;;;4983196;28;20023;-91
2022/12/27 02:27:57;;;;;;;9.25;1.23;;;3.40;99.90;;;;;;4982291;28;20431;-92
2022/12/27 02:30:23;;;;;;;5.28;1.13;;;3.40;99.90;;;;;;4981752;28;20030;-91
2022/12/27 02:33:06;;;;;;;7.50;1.08;;;3.40;99.90;;;;;;5001453;28;20492;-93
2022/12/27 02:35:40;;;;;;;5.22;1.48;;;3.30;99.90;;;;;;4982554;28;20037;-92
2022/12/27 02:38:12;;;;;;;7.15;1.17;;;3.30;99.90;;;;;;4980738;28;20098;-91
2022/12/27 02:55:05;;;;;;;5.10;1.20;;;3.20;99.90;;;;;;5000798;28;20061;-90
2022/12/27 02:57:36;;;;;;;7.82;1.30;;;3.20;99.90;;;;;;4981405;28;20467;-93
2022/12/27 03:03:20;;;;;;;5.32;1.27;;;3.20;99.90;;;;;;5000892;28;20377;-91
2022/12/27 03:06:38;;;;;;;7.43;1.20;;;3.10;99.90;;;;;;4999982;28;20062;-92
2022/12/27 03:08:56;;;;;;;5.93;1.10;;;3.10;99.90;;;;;;5000302;28;20536;-91
2022/12/27 03:17:13;;;;;;;4.70;1.33;;;3.00;99.90;;;;;;4995391;28;20502;-89
2022/12/27 03:25:27;;;;;;;1.00;0.80;;;2.90;99.90;;;;;;5000671;28;20567;-90
2022/12/27 03:33:35;;;;;;;3.42;1.10;;;2.90;99.90;;;;;;5000506;28;20049;-90
2022/12/27 03:39:25;;;;;;;3.63;1.10;;;2.90;99.90;;;;;;4995089;28;20415;-91
2022/12/27 03:44:50;;;;;;;6.68;1.10;;;2.90;99.90;;;;;;4999927;28;20044;-91
2022/12/27 03:47:34;;;;;;;5.72;1.65;;;2.90;99.90;;;;;;4979599;28;20110;-90
2022/12/27 03:50:03;;;;;;;4.55;1.00;;;2.80;99.90;;;;;;4979909;28;20142;-90
2022/12/27 03:52:42;;;;;;;3.10;0.98;;;2.80;99.90;;;;;;4981118;28;20066;-90
2022/12/27 03:55:09;;;;;;;4.85;1.17;;;2.70;99.90;;;;;;4980052;28;20034;-89
2022/12/27 03:57:35;;;;;;;3.08;1.23;;;2.70;99.90;;;;;;4985889;28;20112;-92
2022/12/27 04:00:03;;;;;;;9.50;1.50;;;2.70;99.90;;;;;;4983535;28;20035;-91
2022/12/27 04:02:28;;;;;;;6.18;1.13;;;2.70;99.90;;;;;;4985134;28;20070;-91
2022/12/27 04:04:54;;;;;;;6.43;1.23;;;2.60;99.90;;;;;;4984174;28;20063;-92
2022/12/27 04:07:20;;;;;;;5.57;1.27;;;2.60;99.90;;;;;;4982990;28;20019;-92
2022/12/27 04:37:13;;;;;;;5.07;0.80;;;2.40;99.90;;;;;;5003595;28;20033;-92
2022/12/27 04:39:39;;;;;;;6.05;1.27;;;2.30;99.90;;;;;;4985151;28;20038;-94
2022/12/27 04:56:06;;;;;;;4.95;1.02;;;2.30;99.90;;;;;;5003616;28;20061;-93
2022/12/27 04:58:33;;;;;;;5.07;1.45;;;2.30;99.90;;;;;;4988556;28;20022;-95
2022/12/27 05:03:49;;;;;;;5.40;1.00;;;2.30;99.90;;;;;;5004110;28;20041;-92
2022/12/27 05:06:16;;;;;;;5.40;1.30;;;2.30;99.90;;;;;;4983665;28;20035;-92
2022/12/27 05:14:13;;;;;;;11.02;1.95;;;2.30;99.90;;;;;;5004231;28;20157;-92
2022/12/27 05:16:41;;;;;;;8.05;2.17;;;2.30;99.90;;;;;;4984978;28;20054;-93
2022/12/27 05:19:09;;;;;;;3.38;1.45;;;2.30;99.90;;;;;;4982046;28;20110;-94
2022/12/27 05:27:13;;;;;;;7.28;1.30;;;2.30;99.90;;;;;;5004934;28;20037;-94
2022/12/27 05:29:38;;;;;;;10.80;1.40;;;2.30;99.90;;;;;;4985834;28;20090;-90
2022/12/27 05:32:04;;;;;;;5.57;1.45;;;2.30;99.90;;;;;;4984159;28;20031;-96
2022/12/27 05:34:30;;;;;;;8.75;1.30;;;2.30;99.90;;;;;;4986912;28;20042;-94
2022/12/27 05:36:55;;;;;;;10.85;1.50;;;2.30;99.90;;;;;;4983073;28;20476;-95
2022/12/27 05:39:21;;;;;;;5.78;1.40;;;2.30;99.90;;;;;;4980678;28;20129;-95
2022/12/27 05:41:47;;;;;;;5.63;1.10;;;2.30;99.90;;;;;;4981190;28;20378;-94
2022/12/27 05:44:12;;;;;;;6.15;1.50;;;2.30;99.90;;;;;;4982707;28;20030;-92
2022/12/27 05:46:38;;;;;;;8.35;1.50;;;2.30;99.90;;;;;;4984559;28;20023;-94
2022/12/27 05:49:04;;;;;;;4.60;1.30;;;2.30;99.90;;;;;;4981428;28;20369;-94
2022/12/27 05:51:29;;;;;;;6.35;0.90;;;2.30;99.90;;;;;;4982315;28;20361;-93
2022/12/27 05:53:55;;;;;;;5.10;1.58;;;2.30;99.90;;;;;;4981078;28;20031;-94
2022/12/27 05:56:21;;;;;;;8.95;1.75;;;2.30;99.90;;;;;;4981903;28;20045;-93
2022/12/27 05:58:51;;;;;;;5.35;1.38;;;2.30;99.90;;;;;;5001967;28;20033;-93
2022/12/27 06:01:17;;;;;;;6.30;1.10;;;2.30;99.90;;;;;;4980909;28;20037;-93
2022/12/27 06:03:43;;;;;;;6.20;1.58;;;2.40;99.90;;;;;;4984144;28;20038;-95
2022/12/27 06:06:09;;;;;;;3.53;1.52;;;2.40;99.90;;;;;;5002013;28;20030;-91
2022/12/27 06:08:36;;;;;;;9.07;1.50;;;2.30;99.90;;;;;;4982907;28;20027;-92
2022/12/27 06:11:07;;;;;;;5.78;1.13;;;2.40;99.90;;;;;;4981352;28;20035;-92
2022/12/27 06:13:34;;;;;;;9.68;1.60;;;2.40;99.90;;;;;;4983031;28;20085;-91
2022/12/27 06:16:01;;;;;;;7.03;1.27;;;2.40;99.90;;;;;;4980552;28;20038;-92
2022/12/27 06:18:29;;;;;;;6.95;1.50;;;2.30;99.90;;;;;;4981340;28;20122;-93
2022/12/27 06:20:59;;;;;;;8.57;2.10;;;2.40;99.90;;;;;;4981039;28;20046;-91
2022/12/27 06:23:25;;;;;;;5.85;2.05;;;2.40;99.90;;;;;;4965536;28;20027;-92
2022/12/27 06:25:51;;;;;;;7.68;2.38;;;2.30;99.90;;;;;;4981584;28;20030;-94
2022/12/27 06:28:16;;;;;;;6.13;1.75;;;2.30;99.90;;;;;;4982196;28;20026;-90
2022/12/27 06:30:43;;;;;;;7.53;1.55;;;2.30;99.90;;;;;;4985462;28;20050;-94
2022/12/27 06:33:09;;;;;;;16.05;1.98;;;2.30;99.90;;;;;;4990841;28;20027;-93
2022/12/27 06:35:34;;;;;;;9.38;2.10;;;2.30;99.90;;;;;;4991056;28;20037;-92
2022/12/27 06:38:00;;;;;;;13.30;2.70;;;2.30;99.90;;;;;;4990555;28;20053;-96
2022/12/27 06:40:26;;;;;;;3.63;1.52;;;2.30;99.90;;;;;;4991410;28;20049;-92
2022/12/27 06:42:51;;;;;;;8.45;1.80;;;2.20;99.90;;;;;;4988683;28;20523;-93
2022/12/27 06:45:17;;;;;;;6.00;1.70;;;2.30;99.90;;;;;;4987335;28;20064;-94
2022/12/27 06:47:43;;;;;;;7.07;2.15;;;2.30;99.90;;;;;;4990903;28;20091;-94
2022/12/27 06:50:10;;;;;;;5.13;1.60;;;2.30;99.90;;;;;;5012347;28;20029;-94
2022/12/27 06:52:48;;;;;;;8.70;2.00;;;2.30;99.90;;;;;;4996093;28;20503;-94
2022/12/27 06:55:15;;;;;;;8.65;1.90;;;2.30;99.90;;;;;;4993330;28;20033;-95
2022/12/27 06:57:42;;;;;;;15.90;2.40;;;2.30;99.90;;;;;;4992929;28;20053;-94
2022/12/27 07:00:14;;;;;;;4.38;1.67;;;2.30;99.90;;;;;;5008298;28;20042;-94
2022/12/27 07:02:40;;;;;;;6.70;1.73;;;2.30;99.90;;;;;;5009417;28;20026;-95
2022/12/27 07:05:06;;;;;;;8.23;2.15;;;2.30;99.90;;;;;;4981884;28;20564;-94
2022/12/27 07:07:32;;;;;;;7.47;1.80;;;2.30;99.90;;;;;;4983496;28;20026;-95
2022/12/27 07:09:58;;;;;;;5.78;1.55;;;2.40;99.90;;;;;;4982451;28;20142;-94
2022/12/27 07:12:24;;;;;;;9.55;2.13;;;2.40;99.90;;;;;;4986907;28;20026;-94
2022/12/27 07:14:50;;;;;;;9.45;2.03;;;2.40;99.90;;;;;;4980491;28;20027;-93
2022/12/27 07:17:15;;;;;;;8.90;2.33;;;2.40;99.90;;;;;;4980757;28;20031;-95
2022/12/27 07:19:41;;;;;;;10.52;2.20;;;2.40;99.90;;;;;;5001482;28;20428;-94
2022/12/27 07:22:06;;;;;;;8.48;2.03;;;2.40;99.90;;;;;;4990183;28;20525;-95
2022/12/27 07:24:32;;;;;;;8.60;2.08;;;2.40;99.90;;;;;;4985914;28;20038;-94
2022/12/27 07:26:59;;;;;;;5.28;2.03;;;2.40;99.90;;;;;;4967079;28;20055;-95
2022/12/27 07:29:26;;;;;;;6.68;1.73;;;2.40;99.90;;;;;;4983165;28;20030;-94
2022/12/27 07:31:52;;;;;;;3.50;1.30;;;2.40;99.90;;;;;;4990302;28;20046;-95
2022/12/27 07:34:17;;;;;;;7.45;1.70;;;2.40;99.90;;;;;;4992389;28;20037;-93
2022/12/27 07:36:43;;;;;;;8.23;1.80;;;2.40;99.90;;;;;;4994966;28;20026;-94
2022/12/27 07:39:13;;;;;;;12.85;1.98;;;2.50;99.90;;;;;;4994938;28;20047;-94
2022/12/27 07:41:39;;;;;;;11.00;1.60;;;2.50;99.90;;;;;;4993689;28;20057;-94
2022/12/27 07:44:05;;;;;;;4.93;1.58;;;2.50;99.90;;;;;;4994625;28;20054;-95
2022/12/27 07:46:32;;;;;;;5.68;1.73;;;2.60;99.90;;;;;;4997972;28;20019;-93
2022/12/27 07:48:58;;;;;;;8.10;1.80;;;2.60;99.90;;;;;;4995201;28;20034;-94
2022/12/27 07:51:25;;;;;;;10.00;2.40;;;2.60;99.90;;;;;;4990296;28;20085;-94
2022/12/27 07:53:51;;;;;;;6.40;1.83;;;2.60;99.90;;;;;;4987209;28;20029;-93
2022/12/27 07:56:19;;;;;;;7.72;1.70;;;2.60;99.90;;;;;;4986513;28;20070;-93
2022/12/27 07:58:48;;;;;;;8.40;1.98;;;2.60;99.90;;;;;;4977270;28;20025;-94
2022/12/27 08:01:15;;;;;;;5.93;1.88;;;2.60;99.90;;;;;;4979453;28;20046;-94
2022/12/27 08:03:41;;;;;;;5.53;2.03;;;2.60;99.90;;;;;;4992437;28;20026;-95
2022/12/27 08:06:27;;;;;;;8.18;2.20;;;2.60;99.90;;;;;;4992419;28;20082;-94
2022/12/27 08:08:54;;;;;;;8.40;2.35;;;2.70;99.90;;;;;;5013619;28;20122;-95
2022/12/27 08:11:20;;;;;;;9.25;2.20;;;2.70;99.90;;;;;;5008661;28;20054;-95
2022/12/27 08:13:46;;;;;;;11.70;2.72;;;2.70;99.90;;;;;;4986730;28;20038;-94
2022/12/27 08:16:20;;;;;;;8.90;2.50;;;2.70;99.90;;;;;;4984684;28;20019;-94
2022/12/27 08:18:46;;;;;;;11.57;2.78;;;2.70;99.90;;;;;;4979526;28;20124;-94
2022/12/27 08:21:12;;;;;;;9.32;3.00;;;2.80;99.90;;;;;;4991489;28;20127;-94
2022/12/27 08:23:38;;;;;;;10.30;3.75;;;2.80;99.90;;;;;;4989015;28;20467;-93
2022/12/27 08:26:05;;;;;;;14.13;5.20;;;2.80;99.90;;;;;;4983820;28;20121;-93
2022/12/27 08:28:31;;;;;;;20.58;9.65;;;2.80;99.90;;;;;;4985938;28;20019;-94
2022/12/27 08:30:58;;;;;;;18.80;8.95;;;2.90;99.90;;;;;;4984000;28;20526;-93
2022/12/27 08:33:24;;;;;;;17.52;7.88;;;2.90;99.90;;;;;;4984404;28;20086;-93
2022/12/27 08:35:50;;;;;;;11.70;3.15;;;2.90;99.90;;;;;;4984423;28;20035;-94
2022/12/27 08:38:15;;;;;;;10.30;3.92;;;3.00;99.90;;;;;;4984011;28;20451;-92
2022/12/27 08:40:43;;;;;;;8.68;3.10;;;3.00;99.90;;;;;;4985635;28;20038;-94
2022/12/27 08:43:10;;;;;;;12.95;2.95;;;3.00;99.90;;;;;;4983521;28;20077;-94
2022/12/27 08:45:36;;;;;;;6.72;3.03;;;3.00;99.90;;;;;;4985246;28;20023;-93
2022/12/27 08:48:03;;;;;;;8.80;3.08;;;3.00;99.90;;;;;;4983918;28;20515;-93
2022/12/27 08:50:29;;;;;;;8.60;3.38;;;3.10;99.90;;;;;;4989829;28;20019;-93
2022/12/27 08:53:00;;;;;;;8.50;3.20;;;3.10;99.90;;;;;;4990233;28;20026;-94
2022/12/27 08:55:29;;;;;;;6.72;2.72;;;3.20;99.90;;;;;;4991601;28;20039;-94
2022/12/27 08:57:59;;;;;;;6.15;2.60;;;3.30;99.90;;;;;;4974015;28;20043;-95
2022/12/27 09:00:26;;;;;;;11.60;3.33;;;3.30;99.90;;;;;;4986387;28;20045;-92
2022/12/27 09:02:52;;;;;;;5.40;2.72;;;3.40;99.90;;;;;;4989197;28;20062;-93
2022/12/27 09:05:19;;;;;;;10.57;2.90;;;3.40;99.90;;;;;;4988959;28;20027;-94
2022/12/27 09:07:45;;;;;;;5.88;2.83;;;3.40;99.90;;;;;;4994828;28;20030;-94
2022/12/27 09:10:11;;;;;;;9.75;4.03;;;3.50;99.90;;;;;;4994022;28;20032;-96
2022/12/27 09:12:37;;;;;;;13.20;3.60;;;3.50;99.90;;;;;;4993891;28;20062;-94
2022/12/27 09:15:02;;;;;;;7.55;2.72;;;3.50;99.90;;;;;;4992038;28;20022;-95
2022/12/27 09:17:29;;;;;;;9.98;4.32;;;3.50;99.90;;;;;;4994372;28;20027;-95
2022/12/27 09:19:58;;;;;;;9.20;3.72;;;3.60;99.90;;;;;;4991894;28;20046;-93
2022/12/27 09:22:26;;;;;;;15.80;4.80;;;3.60;99.90;;;;;;4994475;28;20019;-95
2022/12/27 09:24:52;;;;;;;9.27;4.05;;;3.60;99.90;;;;;;4993129;28;20039;-96
2022/12/27 09:27:17;;;;;;;16.38;4.35;;;3.60;99.90;;;;;;5004875;28;20041;-96
2022/12/27 09:29:43;;;;;;;15.93;4.80;;;3.70;99.90;;;;;;5011632;28;20088;-96
2022/12/27 09:32:08;;;;;;;11.63;4.53;;;3.70;99.90;;;;;;4991613;28;20030;-95
2022/12/27 09:34:34;;;;;;;12.25;4.78;;;3.70;99.90;;;;;;5008816;28;20057;-92
2022/12/27 09:37:00;;;;;;;13.55;4.93;;;3.70;99.90;;;;;;5010762;28;20030;-95
2022/12/27 09:39:25;;;;;;;12.88;4.65;;;3.80;99.90;;;;;;4986553;28;20355;-94
2022/12/27 09:42:10;;;;;;;13.43;4.95;;;3.80;99.90;;;;;;4985316;28;20121;-93
2022/12/27 09:44:36;;;;;;;10.30;4.60;;;3.90;99.90;;;;;;4979870;28;20109;-92
2022/12/27 09:47:17;;;;;;;12.10;4.47;;;3.90;99.90;;;;;;4998747;28;20018;-93
2022/12/27 09:49:45;;;;;;;11.95;5.15;;;3.90;99.90;;;;;;4998419;28;20479;-94
2022/12/27 09:52:26;;;;;;;8.20;4.80;;;4.00;99.90;;;;;;4981067;28;20023;-95
2022/12/27 09:55:04;;;;;;;7.47;5.00;;;4.00;99.90;;;;;;4988387;28;20050;-93
2022/12/27 09:57:37;;;;;;;15.60;4.97;;;4.00;99.90;;;;;;4984988;28;20038;-94
2022/12/27 10:00:14;;;;;;;10.40;4.47;;;4.00;99.90;;;;;;4979734;28;20551;-94
2022/12/27 10:02:43;;;;;;;15.70;4.60;;;4.00;99.90;;;;;;4985974;28;20030;-93
2022/12/27 10:05:26;;;;;;;12.38;4.85;;;4.00;99.90;;;;;;5003094;28;20050;-94
2022/12/27 10:08:22;;;;;;;12.02;4.50;;;4.10;99.90;;;;;;4978194;28;20097;-95
2022/12/27 10:11:07;;;;;;;14.88;4.40;;;4.10;99.90;;;;;;4984809;28;20022;-94
2022/12/27 10:13:47;;;;;;;10.60;5.35;;;4.10;99.90;;;;;;4985436;28;20069;-93
2022/12/27 10:16:40;;;;;;;11.93;4.00;;;4.10;99.90;;;;;;4984938;28;20023;-94
2022/12/27 10:19:47;;;;;;;14.07;5.40;;;4.10;99.90;;;;;;4984232;28;20377;-95
2022/12/27 10:22:13;;;;;;;13.82;5.85;;;4.20;99.90;;;;;;5000939;28;20491;-94
2022/12/27 10:24:52;;;;;;;17.33;5.72;;;4.20;99.90;;;;;;4984609;28;20023;-94
2022/12/27 10:27:24;;;;;;;17.73;6.38;;;4.20;99.90;;;;;;4976873;28;20034;-95
2022/12/27 10:29:58;;;;;;;14.13;5.78;;;4.20;99.90;;;;;;4991991;28;20530;-93
2022/12/27 10:32:25;;;;;;;16.35;6.00;;;4.30;99.90;;;;;;5000955;28;20034;-96
2022/12/27 10:34:58;;;;;;;13.45;5.72;;;4.30;99.90;;;;;;4980656;28;20042;-95
2022/12/27 10:37:24;;;;;;;16.90;6.50;;;4.30;99.90;;;;;;4982399;28;20085;-95
2022/12/27 10:39:50;;;;;;;15.38;6.13;;;4.40;99.90;;;;;;4982154;28;20430;-94
2022/12/27 10:42:40;;;;;;;12.38;6.30;;;4.50;99.90;;;;;;5003456;28;20046;-94
2022/12/27 10:45:27;;;;;;;11.60;5.20;;;4.50;99.90;;;;;;4983640;28;20057;-94
2022/12/27 10:47:58;;;;;;;18.10;6.25;;;4.50;99.90;;;;;;4986649;28;20046;-95
2022/12/27 10:50:27;;;;;;;16.80;5.68;;;4.50;99.90;;;;;;4988865;28;20072;-95
2022/12/27 10:52:53;;;;;;;18.23;6.38;;;4.50;99.90;;;;;;4987685;28;20065;-95
2022/12/27 10:55:37;;;;;;;13.10;6.25;;;4.50;99.90;;;;;;4990360;28;20034;-95
2022/12/27 10:58:25;;;;;;;10.15;4.93;;;4.50;99.90;;;;;;5004768;28;20057;-96
2022/12/27 11:00:55;;;;;;;11.25;5.03;;;4.60;99.90;;;;;;5010198;28;20050;-95
2022/12/27 11:03:22;;;;;;;13.07;5.25;;;4.60;99.90;;;;;;5007452;28;20023;-95
2022/12/27 11:06:05;;;;;;;15.73;6.38;;;4.60;99.90;;;;;;5009355;28;20026;-94
2022/12/27 11:08:31;;;;;;;10.65;5.68;;;4.60;99.90;;;;;;4999624;28;20045;-93
2022/12/27 11:11:19;;;;;;;13.45;5.68;;;4.60;99.90;;;;;;4975347;28;20117;-91
2022/12/27 11:13:46;;;;;;;10.85;5.10;;;4.60;99.90;;;;;;4988289;28;20030;-93
2022/12/27 11:16:37;;;;;;;12.27;5.13;;;4.70;99.90;;;;;;4995569;28;20065;-94
2022/12/27 11:19:03;;;;;;;;;;;4.70;99.90;;;;;;4972258;28;20125;-93
2022/12/27 11:21:30;;;;;;;7.70;4.22;;;4.70;99.90;;;;;;4978366;28;19953;-93
2022/12/27 11:23:58;;;;;;;12.93;5.07;;;4.70;99.90;;;;;;4995202;28;20511;-93
2022/12/27 11:26:39;;;;;;;9.57;4.72;;;4.70;99.90;;;;;;4975614;28;20034;-93
2022/12/27 11:29:04;;;;;;;10.15;4.90;;;4.70;99.90;;;;;;4995198;28;20106;-93
2022/12/27 11:31:37;;;;;;;11.23;4.47;;;4.70;99.90;;;;;;4994902;28;20057;-92
2022/12/27 11:34:29;;;;;;;9.10;4.38;;;4.70;99.90;;;;;;4974401;28;20042;-94
2022/12/27 11:37:06;;;;;;;10.63;3.85;;;4.70;99.90;;;;;;4968922;28;20038;-93
2022/12/27 11:39:47;;;;;;;11.68;4.35;;;4.70;99.90;;;;;;4977478;28;20084;-94
2022/12/27 11:42:25;;;;;;;;;;;4.70;99.90;;;;;;4974887;28;20705;-92
2022/12/27 11:45:27;;;;;;;8.75;3.60;;;4.80;99.90;;;;;;4987871;28;19910;-92
2022/12/27 11:48:05;;;;;;;9.82;5.15;;;4.80;99.90;;;;;;4995293;28;20123;-91
2022/12/27 11:51:02;;;;;;;9.50;3.47;;;4.80;99.90;;;;;;4975850;28;20062;-91
2022/12/27 11:53:55;;;;;;;12.48;3.42;;;4.80;99.90;;;;;;4881566;29;20029;-92
2022/12/27 11:56:34;;;;;;;8.43;3.47;;;4.80;99.90;;;;;;4881608;29;20054;-94
2022/12/27 11:59:21;;;;;;;9.30;2.55;;;4.80;99.90;;;;;;4897261;29;20093;-92
2022/12/27 12:02:02;;;;;;;7.75;3.30;;;4.80;99.90;;;;;;4896591;29;20037;-86
2022/12/27 12:04:52;;;;;;;5.57;2.78;;;4.90;99.90;;;;;;4896983;29;20524;-93
2022/12/27 12:07:35;;;;;;;10.48;3.47;;;4.90;99.90;;;;;;4896784;29;20133;-92
2022/12/27 12:10:10;;;;;;;9.95;2.85;;;4.90;99.90;;;;;;4896767;29;20037;-94
2022/12/27 12:12:49;;;;;;;6.53;2.65;;;4.90;99.90;;;;;;4881432;29;20036;-92
2022/12/27 12:15:17;;;;;;;4.63;2.80;;;5.00;99.90;;;;;;4881251;29;20430;-92
2022/12/27 12:18:12;;;;;;;7.25;2.90;;;5.00;99.90;;;;;;4899090;29;20517;-92
2022/12/27 12:21:07;;;;;;;6.43;2.70;;;5.00;99.90;;;;;;4884921;29;20143;-94
2022/12/27 12:24:10;;;;;;;8.77;2.72;;;5.10;99.90;;;;;;4901923;29;20047;-94
2022/12/27 12:27:21;;;;;;;6.35;2.50;;;5.10;99.90;;;;;;4900782;29;20043;-93
2022/12/27 12:30:05;;;;;;;;;;;5.10;99.90;;;;;;4910570;28;20034;-92
2022/12/27 12:32:39;;;;;;;7.85;2.28;;;5.10;99.90;;;;;;5001679;28;19981;-90
2022/12/27 12:35:22;;;;;;;6.10;2.40;;;5.10;99.90;;;;;;5019786;28;20017;-90
2022/12/27 12:38:08;;;;;;;13.93;2.75;;;5.10;99.90;;;;;;4995288;28;20101;-91
2022/12/27 12:40:46;;;;;;;11.38;3.00;;;5.10;99.90;;;;;;5002155;28;20027;-91
2022/12/27 12:43:51;;;;;;;4.95;2.17;;;5.20;99.90;;;;;;5017578;28;20169;-93
2022/12/27 12:46:49;;;;;;;4.68;2.08;;;5.20;99.90;;;;;;4999082;28;20035;-91
2022/12/27 12:49:37;;;;;;;7.65;3.35;;;5.30;99.90;;;;;;4977572;28;20129;-92
2022/12/27 12:52:24;;;;;;;10.95;3.25;;;5.30;99.90;;;;;;4977384;28;20022;-94
2022/12/27 12:54:57;;;;;;;10.32;3.45;;;5.30;99.90;;;;;;4977427;28;20086;-93
2022/12/27 12:57:41;;;;;;;6.45;3.00;;;5.30;99.90;;;;;;4978282;28;20038;-93
2022/12/27 13:00:36;;;;;;;10.63;3.63;;;5.40;99.90;;;;;;4977393;28;20133;-93
2022/12/27 13:03:20;;;;;;;12.20;3.28;;;5.40;99.90;;;;;;5002913;28;20050;-93
2022/12/27 13:05:52;;;;;;;9.35;2.97;;;5.40;99.90;;;;;;4984673;28;20093;-92
2022/12/27 13:08:25;;;;;;;12.55;3.03;;;5.50;99.90;;;;;;5003975;28;20022;-95
2022/12/27 13:11:07;;;;;;;7.15;2.20;;;5.50;99.90;;;;;;4998829;28;20034;-93
2022/12/27 13:13:33;;;;;;;7.05;2.22;;;5.60;99.90;;;;;;4989625;28;20039;-93
2022/12/27 13:16:28;;;;;;;7.93;2.20;;;5.70;99.90;;;;;;4990178;28;20046;-92
2022/12/27 13:19:23;;;;;;;8.50;3.00;;;5.70;99.90;;;;;;5001120;28;20050;-95
2022/12/27 13:22:26;;;;;;;7.15;1.65;;;5.80;99.90;;;;;;4907444;29;20055;-95
2022/12/27 13:25:05;;;;;;;3.25;1.80;;;5.90;99.90;;;;;;4908039;29;20040;-93
2022/12/27 13:27:53;;;;;;;7.43;1.70;;;6.00;99.90;;;;;;4903719;29;20046;-94
2022/12/27 13:30:32;;;;;;;13.48;4.25;;;6.10;99.90;;;;;;4919855;29;20106;-94
2022/12/27 13:33:22;;;;;;;17.48;6.13;;;6.20;99.90;;;;;;4908009;29;20029;-93
2022/12/27 13:35:54;;;;;;;21.75;8.77;;;6.20;99.90;;;;;;4927378;29;20068;-92
2022/12/27 13:38:25;;;;;;;8.98;3.58;;;6.30;99.90;;;;;;4904403;29;20032;-95
2022/12/27 13:40:57;;;;;;;3.20;1.65;;;6.40;99.90;;;;;;4922683;29;20036;-95
2022/12/27 13:43:28;;;;;;;6.25;2.55;;;6.40;99.90;;;;;;4909774;29;20048;-93
2022/12/27 13:46:24;;;;;;;7.65;1.92;;;6.50;99.90;;;;;;4913009;29;20033;-94
2022/12/27 13:49:27;;;;;;;11.63;2.03;;;6.60;99.90;;;;;;4911997;29;20047;-94
2022/12/27 13:51:59;;;;;;;5.90;1.25;;;6.60;99.90;;;;;;4914687;29;20036;-93
2022/12/27 13:54:46;;;;;;;7.47;1.70;;;6.70;99.90;;;;;;4931075;29;20039;-93
2022/12/27 13:57:48;;;;;;;2.45;1.15;;;6.80;99.90;;;;;;4916336;29;20035;-95
2022/12/27 14:00:17;;;;;;;8.00;1.42;;;6.80;99.90;;;;;;5003833;28;20035;-93
2022/12/27 14:03:05;;;;;;;7.53;1.55;;;6.90;99.90;;;;;;4989381;28;20030;-94
2022/12/27 14:05:40;;;;;;;10.38;1.80;;;6.90;99.90;;;;;;4985262;28;20502;-94
2022/12/27 14:08:06;;;;;;;4.35;1.50;;;6.90;99.90;;;;;;4983677;28;20050;-93
2022/12/27 14:10:51;;;;;;;4.25;1.13;;;7.00;99.90;;;;;;4982800;28;20027;-94
2022/12/27 14:13:39;;;;;;;4.22;1.15;;;7.00;99.90;;;;;;4983168;28;20033;-93
2022/12/27 14:16:38;;;;;;;3.22;1.27;;;7.10;99.90;;;;;;5004160;28;20042;-95
2022/12/27 14:19:29;;;;;;;3.05;1.17;;;7.10;99.90;;;;;;4984839;28;20046;-93
2022/12/27 14:22:32;;;;;;;2.90;0.90;;;7.10;99.90;;;;;;4977330;28;20045;-95
2022/12/27 14:25:16;;;;;;;4.45;1.50;;;7.20;99.90;;;;;;4999908;28;20516;-93
2022/12/27 14:28:13;;;;;;;8.38;1.50;;;7.20;99.90;;;;;;4982832;28;20038;-93
2022/12/27 14:31:13;;;;;;;8.82;2.38;;;7.20;99.90;;;;;;4982490;28;20453;-93
2022/12/27 14:34:06;;;;;;;1.90;1.20;;;7.30;99.90;;;;;;4982511;28;20027;-95
2022/12/27 14:36:46;;;;;;;6.13;1.38;;;7.30;99.90;;;;;;5000021;28;20029;-91
2022/12/27 14:39:17;;;;;;;6.38;1.20;;;7.40;99.90;;;;;;4978087;28;20023;-95
2022/12/27 14:41:52;;;;;;;4.88;1.13;;;7.40;99.90;;;;;;4998387;28;20137;-95
2022/12/27 14:44:44;;;;;;;3.08;1.17;;;7.50;99.90;;;;;;5000808;28;20026;-94
2022/12/27 14:47:38;;;;;;;3.15;0.90;;;7.50;99.90;;;;;;4979690;28;20049;-95
2022/12/27 14:50:24;;;;;;;1.88;1.05;;;7.60;99.90;;;;;;4999607;28;20018;-94
2022/12/27 14:52:55;;;;;;;4.60;0.43;;;7.60;99.90;;;;;;4993549;28;20029;-95
2022/12/27 14:55:37;;;;;;;1.42;0.90;;;7.60;99.90;;;;;;4983531;28;20018;-94
2022/12/27 14:58:26;;;;;;;2.03;0.65;;;7.70;99.90;;;;;;4999882;28;20034;-94
2022/12/27 15:00:58;;;;;;;3.28;0.63;;;7.70;99.90;;;;;;4975194;28;20089;-94
2022/12/27 15:03:48;;;;;;;1.08;0.68;;;7.70;99.90;;;;;;4999145;28;20031;-93
2022/12/27 15:06:21;;;;;;;2.15;0.30;;;7.80;99.90;;;;;;5000466;28;20046;-93
2022/12/27 15:09:21;;;;;;;3.70;0.88;;;7.80;99.90;;;;;;4975086;28;20034;-92